Time;durP1;ratioP1;P1;durP2;ratioP2;P2;SDS_P1;SDS_P2;PMS_P1;PMS_P2;Temp;Humidity;BMP_temperature;BMP_pressure;BME280_temperature;BME280_humidity;BME280_pressure;Samples;Min_cycle;Max_cycle;Signal;HPM_P1;HPM_P2
2022/11/20 00:00:48;;;;;;;10.60;6.15;;;8.00;99.90;;;;;;5085386;28;20020;-79
2022/11/20 00:03:14;;;;;;;10.57;6.63;;;8.00;99.90;;;;;;5091270;28;20498;-79
2022/11/20 00:05:39;;;;;;;11.95;6.85;;;8.00;99.90;;;;;;5097706;28;20435;-79
2022/11/20 00:08:05;;;;;;;11.48;7.15;;;8.00;99.90;;;;;;5079412;28;20058;-79
2022/11/20 00:10:31;;;;;;;11.90;7.05;;;8.10;99.90;;;;;;5097669;28;20047;-79
2022/11/20 00:12:59;;;;;;;9.38;6.63;;;8.00;99.90;;;;;;5079671;28;20111;-79
2022/11/20 00:15:25;;;;;;;10.93;6.95;;;8.10;99.90;;;;;;5097486;28;20544;-80
2022/11/20 00:17:51;;;;;;;11.05;7.50;;;8.10;99.90;;;;;;5079131;28;20059;-80
2022/11/20 00:20:17;;;;;;;12.55;7.03;;;8.00;99.90;;;;;;5079671;28;20024;-80
2022/11/20 00:22:42;;;;;;;9.90;6.10;;;8.00;99.90;;;;;;5078852;28;20073;-80
2022/11/20 00:25:08;;;;;;;9.65;6.97;;;8.00;99.90;;;;;;5096670;28;20020;-79
2022/11/20 00:27:34;;;;;;;9.77;5.93;;;8.10;99.90;;;;;;5079511;28;20552;-79
2022/11/20 00:29:59;;;;;;;10.75;6.97;;;8.10;99.90;;;;;;5097309;28;20031;-79
2022/11/20 00:32:25;;;;;;;11.05;6.80;;;8.10;99.90;;;;;;5097284;28;20058;-79
2022/11/20 00:34:51;;;;;;;9.43;5.88;;;8.10;99.90;;;;;;5097344;28;20016;-79
2022/11/20 00:37:16;;;;;;;7.88;5.63;;;8.10;99.90;;;;;;5096846;28;20040;-79
2022/11/20 00:39:42;;;;;;;8.38;5.47;;;8.20;99.90;;;;;;5080537;28;20086;-79
2022/11/20 00:42:08;;;;;;;7.30;5.10;;;8.10;99.90;;;;;;5072480;28;20024;-80
2022/11/20 00:44:33;;;;;;;10.00;5.70;;;8.20;99.90;;;;;;5097028;28;20028;-80
2022/11/20 00:46:59;;;;;;;9.88;5.00;;;8.20;99.90;;;;;;5097309;28;20504;-80
2022/11/20 00:49:24;;;;;;;8.38;5.63;;;8.20;99.90;;;;;;5090107;28;20528;-78
2022/11/20 00:51:50;;;;;;;7.15;4.60;;;8.30;99.90;;;;;;5085038;28;20029;-79
2022/11/20 00:54:16;;;;;;;6.95;4.13;;;8.30;99.90;;;;;;5065702;28;20043;-78
2022/11/20 00:56:41;;;;;;;6.40;4.20;;;8.30;99.90;;;;;;5079181;28;20037;-77
2022/11/20 00:59:09;;;;;;;8.73;4.40;;;8.30;99.90;;;;;;5078925;28;20024;-78
2022/11/20 01:01:36;;;;;;;6.53;4.72;;;8.30;99.90;;;;;;5060291;28;20431;-78
2022/11/20 01:04:02;;;;;;;6.20;4.45;;;8.30;99.90;;;;;;5070466;28;20016;-78
2022/11/20 01:06:33;;;;;;;4.65;3.30;;;8.30;99.90;;;;;;5078833;28;20083;-78
2022/11/20 01:09:02;;;;;;;6.75;4.20;;;8.30;99.90;;;;;;5079089;28;20137;-77
2022/11/20 01:11:38;;;;;;;5.18;3.40;;;8.40;99.90;;;;;;5096846;28;20027;-77
2022/11/20 01:14:07;;;;;;;6.45;4.05;;;8.40;99.90;;;;;;5079113;28;20402;-77
2022/11/20 01:16:35;;;;;;;6.03;3.55;;;8.40;99.90;;;;;;5096537;28;20560;-78
2022/11/20 01:19:03;;;;;;;5.78;3.20;;;8.40;99.90;;;;;;5096965;28;20016;-78
2022/11/20 01:21:35;;;;;;;6.03;2.83;;;8.40;99.90;;;;;;5078387;28;20024;-78
2022/11/20 01:24:02;;;;;;;5.20;2.72;;;8.40;99.90;;;;;;5096879;28;20024;-77
2022/11/20 01:26:30;;;;;;;5.45;2.50;;;8.40;99.90;;;;;;5096649;28;20032;-79
2022/11/20 01:28:56;;;;;;;3.50;2.42;;;8.50;99.90;;;;;;5096863;28;20104;-79
2022/11/20 01:31:27;;;;;;;3.40;2.25;;;8.50;99.90;;;;;;5078329;28;20115;-80
2022/11/20 01:33:57;;;;;;;4.10;2.40;;;8.50;99.90;;;;;;5078862;28;20055;-80
2022/11/20 01:36:25;;;;;;;4.03;2.50;;;8.50;99.90;;;;;;5079852;28;20060;-80
2022/11/20 01:38:52;;;;;;;3.90;1.92;;;8.50;99.90;;;;;;5069175;28;20020;-84
2022/11/20 01:44:03;;;;;;;3.80;2.13;;;8.50;99.90;;;;;;5071347;28;20039;-88
2022/11/20 01:46:30;;;;;;;3.88;2.13;;;8.40;99.90;;;;;;5086306;28;20086;-86
2022/11/20 01:49:16;;;;;;;3.47;2.15;;;8.50;99.90;;;;;;5070547;28;20036;-79
2022/11/20 01:52:04;;;;;;;4.85;1.73;;;8.50;99.90;;;;;;5108199;28;20028;-79
2022/11/20 01:54:43;;;;;;;2.92;1.60;;;8.50;99.90;;;;;;5069890;28;20134;-79
2022/11/20 01:57:11;;;;;;;2.63;1.88;;;8.50;99.90;;;;;;5117121;28;20085;-79
2022/11/20 01:59:43;;;;;;;2.78;1.80;;;8.50;99.90;;;;;;5117976;28;20012;-79
2022/11/20 02:02:09;;;;;;;5.40;1.83;;;8.50;99.90;;;;;;5099722;28;20024;-80
2022/11/20 02:04:35;;;;;;;3.55;1.77;;;8.50;99.90;;;;;;5099865;28;20036;-79
2022/11/20 02:07:04;;;;;;;3.20;1.77;;;8.50;99.90;;;;;;5099444;28;20020;-79
2022/11/20 02:09:30;;;;;;;5.03;1.83;;;8.50;99.90;;;;;;5081651;28;20056;-80
2022/11/20 02:11:56;;;;;;;4.25;1.75;;;8.50;99.90;;;;;;5099482;28;20032;-78
2022/11/20 02:14:23;;;;;;;3.63;1.60;;;8.50;99.90;;;;;;5099690;28;20031;-78
2022/11/20 02:16:49;;;;;;;2.47;1.65;;;8.50;99.90;;;;;;5099291;28;20024;-78
2022/11/20 02:19:30;;;;;;;3.83;1.73;;;8.60;99.90;;;;;;5099609;28;20020;-78
2022/11/20 02:22:08;;;;;;;2.55;1.50;;;8.60;99.90;;;;;;5099374;28;20024;-79
2022/11/20 02:24:34;;;;;;;2.65;1.60;;;8.60;99.90;;;;;;5081134;28;20024;-79
2022/11/20 02:27:09;;;;;;;3.67;1.50;;;8.60;99.90;;;;;;5081411;28;20532;-79
2022/11/20 02:29:40;;;;;;;3.20;1.42;;;8.60;99.90;;;;;;5081381;28;20032;-79
2022/11/20 02:32:06;;;;;;;3.20;1.58;;;8.60;99.90;;;;;;5099192;28;20488;-79
2022/11/20 02:34:32;;;;;;;2.38;1.55;;;8.60;99.90;;;;;;5099337;28;20052;-78
2022/11/20 02:36:59;;;;;;;4.40;1.65;;;8.70;99.90;;;;;;5098204;28;20074;-79
2022/11/20 02:39:27;;;;;;;3.85;1.67;;;8.60;99.90;;;;;;5095050;28;20026;-79
2022/11/20 02:41:56;;;;;;;2.95;1.30;;;8.70;99.90;;;;;;5119473;28;20028;-79
2022/11/20 02:44:22;;;;;;;3.78;1.48;;;8.70;99.90;;;;;;5101396;28;20023;-78
2022/11/20 02:46:48;;;;;;;5.80;2.10;;;8.70;99.90;;;;;;5119006;28;20396;-77
2022/11/20 02:49:13;;;;;;;2.83;1.50;;;8.70;99.90;;;;;;5110670;28;20055;-77
2022/11/20 02:51:39;;;;;;;2.17;1.15;;;8.70;99.90;;;;;;5107272;28;20037;-79
2022/11/20 02:54:05;;;;;;;3.70;1.30;;;8.70;99.90;;;;;;5098772;28;20065;-78
2022/11/20 02:56:31;;;;;;;2.33;1.38;;;8.70;99.90;;;;;;5098997;28;20040;-78
2022/11/20 02:58:56;;;;;;;2.00;1.13;;;8.70;99.90;;;;;;5080765;28;20026;-78
2022/11/20 03:01:22;;;;;;;2.35;1.17;;;8.70;99.90;;;;;;5104647;28;20028;-77
2022/11/20 03:03:52;;;;;;;2.63;1.60;;;8.70;99.90;;;;;;5118896;28;20016;-77
2022/11/20 03:06:17;;;;;;;2.78;1.25;;;8.60;99.90;;;;;;5118891;28;20055;-77
2022/11/20 03:08:43;;;;;;;1.75;1.15;;;8.70;99.90;;;;;;5118951;28;20023;-77
2022/11/20 03:11:09;;;;;;;3.10;1.40;;;8.70;99.90;;;;;;5118974;28;20400;-78
2022/11/20 03:13:35;;;;;;;2.15;1.40;;;8.70;99.90;;;;;;5118788;28;20484;-77
2022/11/20 03:16:17;;;;;;;3.10;1.50;;;8.70;99.90;;;;;;5118784;28;20112;-80
2022/11/20 03:18:43;;;;;;;3.40;1.50;;;8.70;99.90;;;;;;5118596;28;20028;-78
2022/11/20 03:21:10;;;;;;;3.00;1.40;;;8.70;99.90;;;;;;5118388;28;20024;-78
2022/11/20 03:23:36;;;;;;;2.75;1.20;;;8.70;99.90;;;;;;5100614;28;20360;-79
2022/11/20 03:26:12;;;;;;;2.40;1.70;;;8.70;99.90;;;;;;5100033;28;20051;-78
2022/11/20 03:28:39;;;;;;;2.75;1.25;;;8.70;99.90;;;;;;5100387;28;20058;-78
2022/11/20 03:31:16;;;;;;;2.38;1.20;;;8.70;99.90;;;;;;5118265;28;20020;-78
2022/11/20 03:33:42;;;;;;;4.32;1.70;;;8.80;99.90;;;;;;5118694;28;20030;-78
2022/11/20 03:36:10;;;;;;;2.00;1.33;;;8.80;99.90;;;;;;5117846;28;20031;-78
2022/11/20 03:38:36;;;;;;;3.47;1.48;;;8.80;99.90;;;;;;5110577;28;20536;-78
2022/11/20 03:41:05;;;;;;;3.08;1.30;;;8.80;99.90;;;;;;5097634;28;20481;-78
2022/11/20 03:43:32;;;;;;;2.97;1.38;;;8.80;99.90;;;;;;5080047;28;20028;-78
2022/11/20 03:45:58;;;;;;;5.85;1.90;;;8.80;99.90;;;;;;5097701;28;20032;-78
2022/11/20 03:48:24;;;;;;;4.28;1.33;;;8.80;99.90;;;;;;5079693;28;20404;-79
2022/11/20 03:50:51;;;;;;;2.17;1.30;;;8.80;99.90;;;;;;5079396;28;20507;-78
2022/11/20 03:53:17;;;;;;;4.05;1.60;;;8.80;99.90;;;;;;5104064;28;20069;-79
2022/11/20 03:55:43;;;;;;;2.65;1.33;;;8.80;99.90;;;;;;5117980;28;20038;-79
2022/11/20 03:58:09;;;;;;;3.38;1.48;;;8.80;99.90;;;;;;5118353;28;20020;-78
2022/11/20 04:00:35;;;;;;;3.08;1.70;;;8.80;99.90;;;;;;5107304;28;20016;-79
2022/11/20 04:03:02;;;;;;;2.60;1.35;;;8.80;99.90;;;;;;5079762;28;20029;-79
2022/11/20 04:05:28;;;;;;;3.65;1.63;;;8.90;99.90;;;;;;5079343;28;20024;-79
2022/11/20 04:07:54;;;;;;;3.55;1.42;;;8.90;99.90;;;;;;5079428;28;20020;-77
2022/11/20 04:10:19;;;;;;;3.15;1.40;;;8.90;99.90;;;;;;5097415;28;20396;-77
2022/11/20 04:12:45;;;;;;;3.00;1.33;;;8.90;99.90;;;;;;5097671;28;20081;-77
2022/11/20 04:15:11;;;;;;;2.92;1.45;;;8.90;99.90;;;;;;5079111;28;20035;-77
2022/11/20 04:17:36;;;;;;;2.80;1.40;;;8.90;99.90;;;;;;5097622;28;20076;-77
2022/11/20 04:20:03;;;;;;;2.15;1.27;;;8.90;99.90;;;;;;5097327;28;20024;-77
2022/11/20 04:22:28;;;;;;;2.30;1.50;;;8.90;99.90;;;;;;5097173;28;20412;-79
2022/11/20 04:24:54;;;;;;;3.35;1.42;;;9.00;99.90;;;;;;5097269;28;20028;-79
2022/11/20 04:27:20;;;;;;;2.33;1.42;;;9.00;99.90;;;;;;5096342;28;20020;-78
2022/11/20 04:29:46;;;;;;;2.75;1.25;;;9.00;99.90;;;;;;5077991;28;20024;-78
2022/11/20 04:32:11;;;;;;;2.78;1.58;;;9.00;99.90;;;;;;5097513;28;20059;-78
2022/11/20 04:34:37;;;;;;;3.05;1.70;;;9.00;99.90;;;;;;5097090;28;20024;-78
2022/11/20 04:37:03;;;;;;;3.13;1.30;;;9.10;99.90;;;;;;5079158;28;20111;-78
2022/11/20 04:39:28;;;;;;;2.80;1.52;;;9.10;99.90;;;;;;5091239;28;20095;-77
2022/11/20 04:42:28;;;;;;;5.18;2.03;;;9.10;99.90;;;;;;5117864;28;20027;-78
2022/11/20 04:44:39;;;;;;;3.08;1.60;;;9.10;99.90;;;;;;5117220;28;20101;-78
2022/11/20 04:47:05;;;;;;;5.50;2.20;;;9.10;99.90;;;;;;5117575;28;20023;-77
2022/11/20 04:49:31;;;;;;;3.38;1.77;;;9.10;99.90;;;;;;5106158;28;20058;-78
2022/11/20 04:51:57;;;;;;;3.92;1.70;;;9.10;99.90;;;;;;5105047;28;20107;-79
2022/11/20 04:54:23;;;;;;;2.90;1.58;;;9.10;99.90;;;;;;5079451;28;20081;-79
2022/11/20 04:56:49;;;;;;;3.13;1.90;;;9.10;99.90;;;;;;5079099;28;20036;-79
2022/11/20 04:59:15;;;;;;;4.03;2.15;;;9.10;99.90;;;;;;5104080;28;20023;-77
2022/11/20 05:01:40;;;;;;;3.60;1.77;;;9.10;99.90;;;;;;5117179;28;20024;-77
2022/11/20 05:04:06;;;;;;;3.42;2.08;;;9.20;99.90;;;;;;5099558;28;20107;-77
2022/11/20 05:06:32;;;;;;;3.75;2.17;;;9.10;99.90;;;;;;5117012;28;20051;-77
2022/11/20 05:08:58;;;;;;;4.68;1.98;;;9.10;99.90;;;;;;5117534;28;20072;-77
2022/11/20 05:11:24;;;;;;;5.57;2.15;;;9.20;99.90;;;;;;5100542;28;20084;-77
2022/11/20 05:13:51;;;;;;;3.58;2.00;;;9.20;99.90;;;;;;5121585;28;20391;-78
2022/11/20 05:16:22;;;;;;;2.70;1.70;;;9.10;99.90;;;;;;5120903;28;20425;-78
2022/11/20 05:18:48;;;;;;;3.40;2.28;;;9.20;99.90;;;;;;5121603;28;20456;-78
2022/11/20 05:21:14;;;;;;;3.55;1.85;;;9.20;99.90;;;;;;5102431;28;20023;-78
2022/11/20 05:23:40;;;;;;;3.00;2.08;;;9.20;99.90;;;;;;5121282;28;20041;-78
2022/11/20 05:26:11;;;;;;;4.60;2.50;;;9.30;99.90;;;;;;5102567;28;20020;-78
2022/11/20 05:28:37;;;;;;;3.67;2.00;;;9.30;99.90;;;;;;5102970;28;20023;-78
2022/11/20 05:31:08;;;;;;;3.97;2.30;;;9.30;99.90;;;;;;5120730;28;20028;-78
2022/11/20 05:33:35;;;;;;;2.63;2.00;;;9.30;99.90;;;;;;5102758;28;20035;-78
2022/11/20 05:36:05;;;;;;;4.60;2.20;;;9.30;99.90;;;;;;5120783;28;20059;-78
2022/11/20 05:38:31;;;;;;;4.25;2.10;;;9.20;99.90;;;;;;5095667;28;20027;-79
2022/11/20 05:41:21;;;;;;;3.10;2.15;;;9.30;99.90;;;;;;5100232;28;20016;-78
2022/11/20 05:43:48;;;;;;;3.28;2.00;;;9.30;99.90;;;;;;5082043;28;20030;-78
2022/11/20 05:46:16;;;;;;;2.40;1.73;;;9.30;99.90;;;;;;5082294;28;20032;-78
2022/11/20 05:48:44;;;;;;;5.50;1.90;;;9.30;99.90;;;;;;5099858;28;20028;-80
2022/11/20 05:51:13;;;;;;;2.65;1.73;;;9.30;99.90;;;;;;5081743;28;20119;-78
2022/11/20 05:53:39;;;;;;;2.58;1.90;;;9.30;99.90;;;;;;5110261;28;20031;-77
2022/11/20 05:56:09;;;;;;;5.10;2.10;;;9.40;99.90;;;;;;5120664;28;20063;-77
2022/11/20 05:58:36;;;;;;;3.30;2.20;;;9.40;99.90;;;;;;5120273;28;20563;-77
2022/11/20 06:01:09;;;;;;;3.35;1.77;;;9.40;99.90;;;;;;5102048;28;20023;-77
2022/11/20 06:03:36;;;;;;;2.13;1.83;;;9.40;99.90;;;;;;5102096;28;20031;-77
2022/11/20 06:06:02;;;;;;;3.13;1.80;;;9.40;99.90;;;;;;5120068;28;20030;-79
2022/11/20 06:08:27;;;;;;;3.42;1.90;;;9.50;99.90;;;;;;5120107;28;20020;-79
2022/11/20 06:10:53;;;;;;;2.80;1.60;;;9.50;99.90;;;;;;5120331;28;20031;-79
2022/11/20 06:13:19;;;;;;;2.35;1.77;;;9.40;99.90;;;;;;5102160;28;20027;-79
2022/11/20 06:15:49;;;;;;;1.73;1.30;;;9.40;99.90;;;;;;5120016;28;20032;-79
2022/11/20 06:18:15;;;;;;;1.75;1.42;;;9.30;99.90;;;;;;5120062;28;20030;-79
2022/11/20 06:20:41;;;;;;;1.20;1.05;;;9.20;99.90;;;;;;5120025;28;20023;-80
2022/11/20 06:23:06;;;;;;;1.40;0.90;;;9.20;99.90;;;;;;5100160;28;20084;-81
2022/11/20 06:25:32;;;;;;;1.15;0.75;;;9.30;99.90;;;;;;5120005;28;20361;-83
2022/11/20 06:27:58;;;;;;;1.15;0.63;;;9.30;99.90;;;;;;5101729;28;20426;-84
2022/11/20 06:30:23;;;;;;;0.88;0.68;;;9.30;99.90;;;;;;5091370;28;20039;-85
2022/11/20 06:32:49;;;;;;;0.75;0.65;;;9.30;99.90;;;;;;5085191;28;20034;-85
2022/11/20 06:35:14;;;;;;;0.70;0.65;;;9.30;99.90;;;;;;5101963;28;20395;-85
2022/11/20 06:37:43;;;;;;;0.73;0.60;;;9.30;99.90;;;;;;5087767;28;20404;-86
2022/11/20 06:40:09;;;;;;;1.67;0.63;;;9.40;99.90;;;;;;5090183;28;20038;-87
2022/11/20 06:42:35;;;;;;;0.80;0.80;;;9.40;99.90;;;;;;5081725;28;20039;-86
2022/11/20 06:45:00;;;;;;;1.55;0.85;;;9.30;99.90;;;;;;5070022;28;20022;-86
2022/11/20 06:47:26;;;;;;;0.80;0.60;;;9.30;99.90;;;;;;5079841;28;20059;-86
2022/11/20 06:49:52;;;;;;;1.58;0.60;;;9.30;99.90;;;;;;5069842;28;20082;-85
2022/11/20 06:52:17;;;;;;;1.48;0.73;;;9.30;99.90;;;;;;5083387;28;20039;-86
2022/11/20 06:54:43;;;;;;;0.77;0.68;;;9.30;99.90;;;;;;5075060;28;20035;-86
2022/11/20 06:57:09;;;;;;;0.90;0.70;;;9.30;99.90;;;;;;5082359;28;20024;-87
2022/11/20 06:59:34;;;;;;;0.82;0.57;;;9.30;99.90;;;;;;5079807;28;20107;-86
2022/11/20 07:02:00;;;;;;;0.52;0.52;;;9.30;99.90;;;;;;5094701;28;20025;-86
2022/11/20 07:04:35;;;;;;;0.70;0.70;;;9.30;99.90;;;;;;5097761;28;20093;-84
2022/11/20 07:13:53;;;;;;;0.85;0.60;;;9.40;99.90;;;;;;5081348;28;20548;-85
2022/11/20 07:16:30;;;;;;;;;;;;;;;;;;;;;
2022/11/20 07:19:01;;;;;;;0.80;0.63;;;9.40;99.90;;;;;;5109237;28;20099;-85
2022/11/20 07:21:36;;;;;;;1.00;0.90;;;9.40;99.90;;;;;;5079539;28;20028;-85
2022/11/20 07:24:30;;;;;;;1.10;0.80;;;9.50;99.90;;;;;;5056086;28;20503;-88
2022/11/20 08:14:17;;;;;;;2.13;1.40;;;9.30;99.90;;;;;;5364164;22;20060;-90
2022/11/20 08:20:35;;;;;;;2.15;1.33;;;9.40;99.90;;;;;;5091111;28;20062;-87
2022/11/20 08:34:25;;;;;;;;;;;;;;;;;;;;;
2022/11/20 08:37:41;;;;;;;;;;;;;;;;;;;;;
2022/11/20 08:57:13;;;;;;;3.78;1.13;;;9.70;99.90;;;;;;4822946;29;19921;-84
2022/11/20 09:00:07;;;;;;;;;;;;;;;;;;;;;
2022/11/20 09:10:06;;;;;;;4.63;1.20;;;9.80;99.90;;;;;;4973814;28;20062;-85
2022/11/20 09:16:07;;;;;;;3.60;1.02;;;9.90;99.90;;;;;;4993951;28;20416;-79
2022/11/20 09:18:35;;;;;;;8.15;1.50;;;9.90;99.90;;;;;;5017198;28;20061;-81
2022/11/20 09:21:04;;;;;;;8.70;1.60;;;9.90;99.90;;;;;;5081757;28;20081;-81
2022/11/20 09:23:35;;;;;;;10.18;2.00;;;10.00;99.90;;;;;;5095200;28;20024;-81
2022/11/20 09:26:11;;;;;;;7.45;1.77;;;10.00;99.90;;;;;;5066562;28;20044;-75
2022/11/20 09:28:37;;;;;;;9.95;1.80;;;10.00;99.90;;;;;;5068204;28;20405;-77
2022/11/20 09:31:17;;;;;;;6.95;1.20;;;10.10;99.90;;;;;;5079823;28;20039;-76
2022/11/20 09:33:43;;;;;;;11.65;1.63;;;10.10;99.90;;;;;;5080250;28;20039;-78
2022/11/20 09:36:08;;;;;;;17.52;2.55;;;10.20;99.90;;;;;;5061472;28;20029;-76
2022/11/20 09:38:34;;;;;;;10.23;2.05;;;10.20;99.90;;;;;;5082549;28;20032;-78
2022/11/20 09:41:05;;;;;;;10.88;2.85;;;10.20;99.90;;;;;;5058657;28;20016;-77
2022/11/20 09:43:31;;;;;;;10.88;2.53;;;10.20;99.90;;;;;;5085024;28;20492;-77
2022/11/20 09:46:07;;;;;;;11.35;2.03;;;10.30;99.90;;;;;;5086927;28;20027;-75
2022/11/20 09:48:33;;;;;;;9.57;2.33;;;10.30;99.90;;;;;;5063538;28;20382;-77
2022/11/20 09:50:58;;;;;;;10.63;2.40;;;10.30;99.90;;;;;;5063336;28;20077;-76
2022/11/20 09:53:49;;;;;;;11.35;2.20;;;10.40;99.90;;;;;;5079498;28;20443;-77
2022/11/20 09:56:16;;;;;;;13.02;2.03;;;10.40;99.90;;;;;;5078626;28;20032;-76
2022/11/20 09:58:48;;;;;;;13.98;2.35;;;10.40;99.90;;;;;;5085945;28;20025;-75
2022/11/20 10:01:21;;;;;;;11.95;2.60;;;10.50;99.90;;;;;;5066984;28;20012;-75
2022/11/20 10:04:04;;;;;;;13.80;2.67;;;10.60;99.90;;;;;;5084587;28;20029;-77
2022/11/20 10:06:53;;;;;;;11.52;2.60;;;10.60;99.90;;;;;;5060002;28;20021;-76
2022/11/20 10:09:30;;;;;;;11.20;3.05;;;10.70;99.90;;;;;;5068298;28;20047;-76
2022/11/20 10:12:26;;;;;;;16.02;2.92;;;10.70;99.90;;;;;;5079491;28;20555;-75
2022/11/20 10:15:01;;;;;;;13.20;2.53;;;10.70;99.90;;;;;;5079999;28;20425;-76
2022/11/20 10:18:05;;;;;;;20.83;3.10;;;10.70;99.90;;;;;;5093177;28;20040;-76
2022/11/20 10:20:49;;;;;;;10.80;2.40;;;10.70;99.90;;;;;;5098941;28;20384;-77
2022/11/20 10:23:50;;;;;;;17.40;3.20;;;10.80;99.90;;;;;;5098922;28;20017;-77
2022/11/20 10:26:55;;;;;;;14.63;3.20;;;10.80;99.90;;;;;;5075304;28;20555;-81
2022/11/20 10:29:29;;;;;;;11.07;2.78;;;10.80;99.90;;;;;;5040940;28;20063;-77
2022/11/20 10:32:00;;;;;;;14.40;2.88;;;10.90;99.90;;;;;;5078489;28;20025;-74
2022/11/20 10:35:02;;;;;;;16.58;2.72;;;10.90;99.90;;;;;;5078682;28;20519;-73
2022/11/20 10:37:30;;;;;;;16.95;3.25;;;11.00;99.90;;;;;;5060154;28;20623;-73
2022/11/20 10:40:08;;;;;;;15.45;2.75;;;11.00;99.90;;;;;;5087454;28;20027;-71
2022/11/20 10:42:44;;;;;;;16.98;2.70;;;11.10;99.90;;;;;;5079843;28;20537;-74
2022/11/20 10:45:21;;;;;;;15.32;3.13;;;11.10;99.90;;;;;;5097623;28;20063;-74
2022/11/20 10:47:46;;;;;;;12.00;2.85;;;11.10;99.90;;;;;;5096987;28;20031;-73
2022/11/20 10:50:18;;;;;;;12.75;2.88;;;11.10;99.90;;;;;;5080759;28;20032;-74
2022/11/20 10:53:00;;;;;;;14.88;2.70;;;11.10;99.90;;;;;;5085660;28;20396;-74
2022/11/20 10:55:40;;;;;;;11.13;2.80;;;11.10;99.90;;;;;;5098985;28;20028;-74
2022/11/20 10:58:40;;;;;;;16.15;2.70;;;11.10;99.90;;;;;;5080468;28;20073;-74
2022/11/20 11:01:13;;;;;;;12.75;2.63;;;11.20;99.90;;;;;;5098748;28;20092;-75
2022/11/20 11:03:39;;;;;;;12.32;2.67;;;11.20;99.90;;;;;;5098639;28;20498;-72
2022/11/20 11:06:05;;;;;;;13.88;2.95;;;11.20;99.90;;;;;;5098772;28;20476;-69
2022/11/20 11:08:37;;;;;;;13.27;2.92;;;11.20;99.90;;;;;;5097600;28;20017;-73
2022/11/20 11:16:23;;;;;;;13.35;2.92;;;11.40;99.90;;;;;;5640421;22;20029;-73
2022/11/20 11:18:49;;;;;;;17.60;2.92;;;11.50;99.90;;;;;;5078054;28;20040;-76
2022/11/20 11:21:22;;;;;;;17.85;3.22;;;11.50;99.90;;;;;;5095490;28;20095;-75
2022/11/20 11:24:01;;;;;;;13.38;2.70;;;11.60;99.90;;;;;;5097969;28;20016;-74
2022/11/20 11:26:27;;;;;;;14.50;2.53;;;11.60;99.90;;;;;;5091913;28;20058;-72
2022/11/20 11:29:02;;;;;;;13.35;3.47;;;11.60;99.90;;;;;;5079698;28;20016;-71
2022/11/20 11:31:30;;;;;;;16.25;2.58;;;11.70;99.90;;;;;;5074051;28;20040;-72
2022/11/20 11:34:14;;;;;;;13.90;2.58;;;11.70;99.90;;;;;;5079482;28;20042;-72
2022/11/20 11:36:40;;;;;;;;;;;11.70;99.90;;;;;;5098485;28;20024;-72
2022/11/20 11:39:11;;;;;;;13.90;2.83;;;11.80;99.90;;;;;;5066002;28;19911;-72
2022/11/20 11:41:37;;;;;;;13.52;2.80;;;11.80;99.90;;;;;;5090727;28;20066;-72
2022/11/20 11:47:31;;;;;;;10.70;2.47;;;11.90;99.90;;;;;;5095837;28;20438;-73
2022/11/20 11:50:27;;;;;;;11.32;2.83;;;11.80;99.90;;;;;;5079519;28;20024;-72
2022/11/20 11:53:14;;;;;;;16.52;3.20;;;11.90;99.90;;;;;;5097524;28;20020;-73
2022/11/20 11:55:49;;;;;;;18.35;3.50;;;11.90;99.90;;;;;;5098014;28;20024;-72
2022/11/20 11:58:27;;;;;;;12.98;2.35;;;11.90;99.90;;;;;;5097543;28;20066;-72
2022/11/20 12:01:06;;;;;;;16.67;2.67;;;11.90;99.90;;;;;;5079572;28;20024;-72
2022/11/20 12:03:43;;;;;;;8.43;2.35;;;11.90;99.90;;;;;;5096800;28;20103;-72
2022/11/20 12:06:14;;;;;;;6.93;1.90;;;11.90;99.90;;;;;;5097533;28;20031;-73
2022/11/20 12:08:43;;;;;;;8.13;1.70;;;11.90;99.90;;;;;;5097532;28;20024;-73
2022/11/20 12:11:46;;;;;;;9.43;1.88;;;11.90;99.90;;;;;;5096866;28;20479;-73
2022/11/20 12:14:25;;;;;;;9.37;2.10;;;11.90;99.90;;;;;;5097469;28;20095;-74
2022/11/20 12:16:53;;;;;;;13.00;2.00;;;11.90;99.90;;;;;;5090060;28;20291;-73
2022/11/20 12:19:18;;;;;;;7.03;2.10;;;11.90;99.90;;;;;;5095808;28;20081;-73
2022/11/20 12:22:11;;;;;;;13.15;2.63;;;12.00;99.90;;;;;;5079309;28;20028;-73
2022/11/20 12:25:12;;;;;;;9.23;1.85;;;12.10;99.90;;;;;;5095972;28;20046;-73
2022/11/20 12:28:05;;;;;;;10.70;1.67;;;12.10;99.90;;;;;;5095903;28;20028;-73
2022/11/20 12:30:38;;;;;;;9.40;1.30;;;12.20;99.90;;;;;;5079175;28;20028;-69
2022/11/20 12:33:30;;;;;;;12.07;2.17;;;12.30;99.90;;;;;;5078887;28;20044;-69
2022/11/20 12:35:56;;;;;;;13.68;2.20;;;12.40;99.90;;;;;;5093912;28;20491;-75
2022/11/20 12:38:48;;;;;;;12.60;2.30;;;12.40;99.90;;;;;;5097271;28;20035;-73
2022/11/20 12:47:55;;;;;;;11.63;1.83;;;12.40;99.90;;;;;;5096829;28;20150;-73
2022/11/20 12:50:27;;;;;;;12.18;1.90;;;12.40;99.90;;;;;;5097062;28;20391;-73
2022/11/20 12:53:10;;;;;;;14.73;2.35;;;12.60;99.90;;;;;;5096481;28;20415;-73
2022/11/20 12:55:48;;;;;;;11.70;2.00;;;12.60;99.90;;;;;;5079020;28;20089;-73
2022/11/20 12:58:36;;;;;;;12.55;2.17;;;12.60;99.90;;;;;;5078903;28;20048;-73
2022/11/20 13:01:42;;;;;;;16.48;2.60;;;12.60;99.90;;;;;;5097066;28;20073;-72
2022/11/20 13:04:34;;;;;;;15.75;2.45;;;12.70;99.90;;;;;;5078994;28;20024;-73
2022/11/20 13:07:12;;;;;;;12.20;2.38;;;12.80;99.90;;;;;;5058757;28;20090;-72
2022/11/20 13:09:44;;;;;;;11.57;2.30;;;12.80;99.90;;;;;;5096953;28;20472;-72
2022/11/20 13:12:23;;;;;;;17.25;3.08;;;12.80;99.90;;;;;;5097164;28;20024;-72
2022/11/20 13:14:55;;;;;;;14.18;2.65;;;12.70;99.90;;;;;;5078851;28;20073;-72
2022/11/20 13:17:40;;;;;;;14.90;3.00;;;12.70;99.90;;;;;;5096393;28;20048;-72
2022/11/20 13:20:12;;;;;;;17.05;3.10;;;12.70;99.90;;;;;;5084669;28;20054;-71
2022/11/20 13:22:47;;;;;;;10.57;2.67;;;12.70;99.90;;;;;;5096827;28;20024;-75
2022/11/20 13:25:36;;;;;;;12.80;2.40;;;12.80;99.90;;;;;;5090558;28;20083;-73
2022/11/20 13:28:29;;;;;;;10.32;2.20;;;12.90;99.90;;;;;;5076222;28;20032;-72
2022/11/20 13:30:56;;;;;;;11.50;2.27;;;13.10;99.90;;;;;;5078308;28;20032;-72
2022/11/20 13:33:33;;;;;;;10.57;2.58;;;13.10;99.90;;;;;;5104743;28;20385;-72
2022/11/20 13:36:05;;;;;;;12.50;2.75;;;13.10;99.90;;;;;;5105851;28;20475;-73
2022/11/20 13:38:53;;;;;;;13.10;3.03;;;13.10;99.90;;;;;;5107440;28;20046;-72
2022/11/20 13:41:35;;;;;;;10.40;2.13;;;13.30;99.90;;;;;;5082114;28;20024;-73
2022/11/20 13:44:24;;;;;;;15.88;2.53;;;13.30;99.90;;;;;;5100434;28;20024;-73
2022/11/20 13:46:50;;;;;;;11.88;1.80;;;13.20;99.90;;;;;;5100008;28;20059;-74
2022/11/20 13:49:31;;;;;;;11.25;2.78;;;13.30;99.90;;;;;;5100206;28;20028;-73
2022/11/20 13:52:20;;;;;;;11.02;2.15;;;13.20;99.90;;;;;;5081895;28;20024;-73
2022/11/20 13:55:01;;;;;;;13.02;2.30;;;13.20;99.90;;;;;;5081836;28;20027;-73
2022/11/20 13:57:47;;;;;;;10.40;2.15;;;13.20;99.90;;;;;;5082079;28;20031;-73
2022/11/20 14:00:12;;;;;;;9.52;2.25;;;13.20;99.90;;;;;;5100765;28;20020;-73
2022/11/20 14:02:39;;;;;;;10.43;1.90;;;13.20;99.90;;;;;;5105008;28;20031;-73
2022/11/20 14:05:05;;;;;;;6.55;1.73;;;13.20;99.90;;;;;;5081389;28;20084;-73
2022/11/20 14:07:41;;;;;;;10.25;2.13;;;13.20;99.90;;;;;;5100013;28;20020;-73
2022/11/20 14:10:23;;;;;;;13.30;2.20;;;13.20;99.90;;;;;;5099691;28;20507;-73
2022/11/20 14:12:50;;;;;;;10.00;1.80;;;13.10;99.90;;;;;;5104087;28;20098;-72
2022/11/20 14:15:31;;;;;;;12.98;2.83;;;13.10;99.90;;;;;;5109125;28;20024;-73
2022/11/20 14:17:57;;;;;;;15.68;3.10;;;13.00;99.90;;;;;;5094037;28;20040;-73
2022/11/20 14:20:32;;;;;;;10.15;3.20;;;12.90;99.90;;;;;;5095263;28;20055;-72
2022/11/20 14:22:58;;;;;;;12.50;2.20;;;12.90;99.90;;;;;;5092888;28;20039;-73
2022/11/20 14:25:30;;;;;;;12.07;2.40;;;12.90;99.90;;;;;;5094637;28;20016;-73
2022/11/20 14:27:59;;;;;;;9.63;2.50;;;12.90;99.90;;;;;;5095077;28;20112;-72
2022/11/20 14:30:27;;;;;;;11.98;2.50;;;12.80;99.90;;;;;;5085752;28;20365;-72
2022/11/20 14:33:01;;;;;;;15.15;3.60;;;12.80;99.90;;;;;;5077779;28;20039;-72
2022/11/20 14:35:30;;;;;;;13.18;2.33;;;12.80;99.90;;;;;;5078060;28;20099;-72
2022/11/20 14:37:56;;;;;;;11.20;2.40;;;12.80;99.90;;;;;;5078045;28;20032;-72
2022/11/20 14:40:30;;;;;;;10.27;2.60;;;12.90;99.90;;;;;;5059937;28;20226;-72
2022/11/20 14:42:57;;;;;;;8.20;2.50;;;12.90;99.90;;;;;;5078655;28;20020;-72
2022/11/20 14:45:23;;;;;;;13.15;2.50;;;12.90;99.90;;;;;;5095791;28;20490;-72
2022/11/20 14:47:51;;;;;;;12.30;2.20;;;12.90;99.90;;;;;;5075268;28;20040;-72
2022/11/20 14:50:24;;;;;;;13.93;2.67;;;12.90;99.90;;;;;;5094805;28;20016;-72
2022/11/20 14:52:59;;;;;;;;;;;12.90;99.90;;;;;;5096543;28;20083;-73
2022/11/20 14:55:32;;;;;;;9.15;1.70;;;12.90;99.90;;;;;;5092553;28;19932;-72
2022/11/20 14:58:25;;;;;;;8.07;2.05;;;12.80;99.90;;;;;;5093099;28;20016;-72
2022/11/20 15:01:03;;;;;;;10.57;2.03;;;12.80;99.90;;;;;;5076065;28;20052;-72
2022/11/20 15:03:34;;;;;;;8.82;1.90;;;12.80;99.90;;;;;;5094879;28;20025;-72
2022/11/20 15:06:00;;;;;;;9.93;2.40;;;12.70;99.90;;;;;;5096066;28;20020;-73
2022/11/20 15:08:26;;;;;;;12.43;2.55;;;12.70;99.90;;;;;;5071584;28;20123;-71
2022/11/20 15:10:52;;;;;;;16.70;2.70;;;12.70;99.90;;;;;;5082981;28;20426;-71